createdAt,value
2023-05-03T00:06:19.425Z,99.90
2023-05-03T00:08:46.828Z,99.90
2023-05-03T00:11:14.495Z,99.90
2023-05-03T00:13:43.447Z,99.90
2023-05-03T00:16:10.680Z,99.90
2023-05-03T00:18:37.743Z,99.90
2023-05-03T00:21:05.263Z,99.90
2023-05-03T00:23:33.351Z,99.90
2023-05-03T00:26:00.692Z,99.90
2023-05-03T00:28:29.062Z,99.90
2023-05-03T00:31:08.171Z,99.90
2023-05-03T00:33:35.851Z,99.90
2023-05-03T00:36:08.762Z,99.90
2023-05-03T00:38:35.901Z,99.90
2023-05-03T00:41:03.381Z,99.90
2023-05-03T00:43:31.641Z,99.90
2023-05-03T00:46:15.307Z,99.90
2023-05-03T00:48:43.694Z,99.90
2023-05-03T00:51:14.223Z,99.90
2023-05-03T00:53:41.805Z,99.90
2023-05-03T00:56:10.583Z,99.90
2023-05-03T00:58:38.210Z,99.90
2023-05-03T01:01:07.782Z,99.90
2023-05-03T01:03:37.069Z,99.90
2023-05-03T01:06:18.056Z,99.90
2023-05-03T01:08:59.773Z,99.90
2023-05-03T01:11:37.891Z,99.90
2023-05-03T01:14:16.188Z,99.90
2023-05-03T01:16:50.566Z,99.90
2023-05-03T01:19:28.048Z,99.90
2023-05-03T01:22:03.252Z,99.90
2023-05-03T01:24:34.202Z,99.90
2023-05-03T01:27:02.930Z,99.90
2023-05-03T01:29:30.869Z,99.90
2023-05-03T01:32:01.342Z,99.90
2023-05-03T01:34:37.192Z,99.90
2023-05-03T01:37:05.366Z,99.90
2023-05-03T01:39:37.580Z,99.90
2023-05-03T01:42:07.252Z,99.90
2023-05-03T01:44:35.561Z,99.90
2023-05-03T01:47:03.146Z,99.90
2023-05-03T01:49:30.123Z,99.90
2023-05-03T01:51:57.190Z,99.90
2023-05-03T01:54:24.368Z,99.90
2023-05-03T01:56:52.315Z,99.90
2023-05-03T01:59:21.345Z,99.90
2023-05-03T02:01:48.594Z,99.90
2023-05-03T02:04:16.188Z,99.90
2023-05-03T02:06:44.133Z,99.90
2023-05-03T02:09:12.281Z,99.90
2023-05-03T02:11:41.896Z,99.90
2023-05-03T02:14:13.746Z,99.90
2023-05-03T02:16:43.800Z,99.90
2023-05-03T02:19:11.932Z,99.90
2023-05-03T02:21:39.171Z,99.90
2023-05-03T02:24:06.920Z,99.90
2023-05-03T02:26:34.817Z,99.90
2023-05-03T02:29:02.270Z,99.90
2023-05-03T02:31:30.344Z,99.90
2023-05-03T02:33:59.721Z,99.90
2023-05-03T02:36:27.917Z,99.90
2023-05-03T02:39:06.330Z,99.90
2023-05-03T02:41:33.856Z,99.90
2023-05-03T02:44:01.250Z,99.90
2023-05-03T02:46:28.831Z,99.90
2023-05-03T02:48:56.767Z,99.90
2023-05-03T02:51:27.154Z,99.90
2023-05-03T02:53:54.832Z,99.90
2023-05-03T02:56:22.305Z,99.90
2023-05-03T02:58:49.909Z,99.90
2023-05-03T03:01:16.797Z,99.90
2023-05-03T03:03:44.182Z,99.90
2023-05-03T03:06:12.188Z,99.90
2023-05-03T03:08:41.120Z,99.90
2023-05-03T03:11:08.305Z,99.90
2023-05-03T03:13:35.237Z,99.90
2023-05-03T03:16:03.241Z,99.90
2023-05-03T03:18:40.489Z,99.90
2023-05-03T03:21:09.175Z,99.90
2023-05-03T03:23:36.354Z,99.90
2023-05-03T03:26:05.068Z,99.90
2023-05-03T03:28:33.062Z,99.90
2023-05-03T03:31:00.543Z,99.90
2023-05-03T03:33:27.936Z,99.90
2023-05-03T03:35:55.622Z,99.90
2023-05-03T03:38:23.256Z,99.90
2023-05-03T03:40:51.763Z,99.90
2023-05-03T03:46:34.680Z,99.90
2023-05-03T03:51:43.509Z,99.90
2023-05-03T03:54:12.092Z,99.90
2023-05-03T03:56:39.858Z,99.90
2023-05-03T03:59:08.945Z,99.90
2023-05-03T04:02:06.941Z,99.90
2023-05-03T04:04:37.937Z,99.90
2023-05-03T04:07:05.184Z,99.90
2023-05-03T04:09:32.080Z,99.90
2023-05-03T04:11:59.329Z,99.90
2023-05-03T04:14:26.639Z,99.90
2023-05-03T04:16:53.924Z,99.90
2023-05-03T04:19:20.992Z,99.90
2023-05-03T04:21:50.271Z,99.90
2023-05-03T04:24:17.208Z,99.90
2023-05-03T04:26:45.637Z,99.90
2023-05-03T04:29:12.923Z,99.90
2023-05-03T04:31:40.784Z,99.90
2023-05-03T04:34:08.434Z,99.90
2023-05-03T04:36:35.749Z,99.90
2023-05-03T04:39:06.009Z,99.90
2023-05-03T04:41:33.377Z,99.90
2023-05-03T04:44:00.450Z,99.90
2023-05-03T04:46:29.325Z,99.90
2023-05-03T04:48:56.415Z,99.90
2023-05-03T04:51:23.451Z,99.90
2023-05-03T04:53:50.483Z,99.90
2023-05-03T04:56:18.651Z,99.90
2023-05-03T04:58:45.528Z,99.90
2023-05-03T05:01:12.510Z,99.90
2023-05-03T05:03:39.370Z,99.90
2023-05-03T05:06:06.529Z,99.90
2023-05-03T05:08:33.375Z,99.90
2023-05-03T05:11:02.016Z,99.90
2023-05-03T05:13:30.214Z,99.90
2023-05-03T05:15:57.258Z,99.90
2023-05-03T05:18:24.119Z,99.90
2023-05-03T05:20:51.093Z,99.90
2023-05-03T05:23:20.183Z,99.90
2023-05-03T05:25:47.380Z,99.90
2023-05-03T05:28:14.115Z,99.90
2023-05-03T05:30:42.202Z,99.90
2023-05-03T05:33:09.021Z,99.90
2023-05-03T05:35:35.910Z,99.90
2023-05-03T05:38:02.697Z,99.90
2023-05-03T05:40:29.600Z,99.90
2023-05-03T05:42:56.578Z,99.90
2023-05-03T05:45:23.385Z,99.90
2023-05-03T05:47:51.629Z,99.90
2023-05-03T05:50:19.241Z,99.90
2023-05-03T05:55:25.223Z,99.90
2023-05-03T05:57:52.057Z,99.90
2023-05-03T06:00:19.619Z,99.90
2023-05-03T06:02:46.595Z,99.90
2023-05-03T06:05:14.868Z,99.90
2023-05-03T06:07:41.700Z,99.90
2023-05-03T06:10:14.504Z,99.90
2023-05-03T06:12:47.500Z,99.90
2023-05-03T06:15:15.306Z,99.90
2023-05-03T06:17:44.727Z,99.90
2023-05-03T06:20:13.221Z,99.90
2023-05-03T06:22:44.456Z,99.90
2023-05-03T06:25:11.625Z,99.90
2023-05-03T06:27:38.771Z,99.90
2023-05-03T06:30:07.780Z,99.90
2023-05-03T06:32:34.970Z,99.90
2023-05-03T06:35:02.334Z,99.90
2023-05-03T06:37:29.286Z,99.90
2023-05-03T06:40:29.770Z,99.90
2023-05-03T06:42:58.623Z,99.90
2023-05-03T06:45:26.381Z,99.90
2023-05-03T06:47:53.444Z,99.90
2023-05-03T06:50:20.739Z,99.90
2023-05-03T06:52:48.176Z,99.90
2023-05-03T06:55:15.292Z,99.90
2023-05-03T06:57:42.730Z,99.90
2023-05-03T07:00:12.909Z,99.90
2023-05-03T07:02:41.870Z,99.90
2023-05-03T07:05:09.798Z,99.90
2023-05-03T07:07:37.002Z,99.90
2023-05-03T07:10:05.624Z,99.90
2023-05-03T07:12:33.500Z,99.90
2023-05-03T07:15:02.577Z,99.90
2023-05-03T07:17:31.205Z,99.90
2023-05-03T07:19:59.480Z,99.90
2023-05-03T07:22:27.134Z,99.90
2023-05-03T07:24:55.045Z,99.90
2023-05-03T07:27:22.144Z,99.90
2023-05-03T07:29:49.146Z,99.90
2023-05-03T07:32:16.399Z,99.90
2023-05-03T07:34:45.513Z,99.90
2023-05-03T07:37:13.703Z,99.90
2023-05-03T07:39:42.257Z,99.90
2023-05-03T07:42:11.461Z,99.90
2023-05-03T07:44:39.625Z,99.90
2023-05-03T07:47:07.782Z,99.90
2023-05-03T07:49:37.865Z,99.90
2023-05-03T07:52:07.497Z,99.90
2023-05-03T07:54:35.862Z,99.90
2023-05-03T07:57:02.860Z,99.90
2023-05-03T08:02:11.096Z,99.90
2023-05-03T08:04:40.329Z,99.90
2023-05-03T08:07:09.354Z,99.90
2023-05-03T08:09:36.640Z,99.90
2023-05-03T08:12:03.819Z,99.90
2023-05-03T08:14:31.773Z,99.90
2023-05-03T08:16:59.108Z,99.90
2023-05-03T08:19:26.535Z,99.90
2023-05-03T08:21:53.632Z,99.90
2023-05-03T08:24:22.128Z,99.90
2023-05-03T08:26:49.341Z,99.90
2023-05-03T08:29:17.074Z,99.90
2023-05-03T08:31:46.133Z,99.90
2023-05-03T08:34:13.517Z,99.30
2023-05-03T08:36:41.631Z,98.20
2023-05-03T08:39:08.903Z,97.90
2023-05-03T08:41:40.165Z,97.40
2023-05-03T08:44:11.789Z,96.40
2023-05-03T08:46:39.261Z,95.90
2023-05-03T08:49:07.793Z,92.90
2023-05-03T08:51:35.364Z,93.20
2023-05-03T08:54:02.716Z,92.90
2023-05-03T08:56:33.685Z,92.70
2023-05-03T08:59:02.698Z,92.90
2023-05-03T09:01:29.645Z,92.40
2023-05-03T09:03:57.329Z,90.80
2023-05-03T09:06:24.856Z,90.80
2023-05-03T09:08:52.587Z,89.80
2023-05-03T09:11:24.056Z,89.80
2023-05-03T09:13:52.233Z,90.40
2023-05-03T09:16:27.712Z,90.50
2023-05-03T09:18:59.908Z,89.50
2023-05-03T09:21:29.151Z,87.80
2023-05-03T09:23:56.365Z,84.70
2023-05-03T09:26:30.464Z,83.20
2023-05-03T09:28:59.575Z,81.00
2023-05-03T09:31:29.698Z,80.30
2023-05-03T09:33:58.080Z,80.40
2023-05-03T09:36:25.831Z,81.00
2023-05-03T09:38:53.054Z,77.50
2023-05-03T09:41:30.645Z,77.90
2023-05-03T09:43:58.392Z,77.80
2023-05-03T09:46:25.582Z,77.90
2023-05-03T09:48:54.581Z,77.80
2023-05-03T09:51:22.940Z,77.10
2023-05-03T09:53:50.666Z,76.20
2023-05-03T09:56:18.171Z,76.40
2023-05-03T09:58:45.241Z,76.80
2023-05-03T10:01:14.640Z,77.90
2023-05-03T10:03:42.905Z,79.20
2023-05-03T10:06:24.354Z,80.70
2023-05-03T10:08:56.217Z,82.60
2023-05-03T10:11:27.058Z,83.50
2023-05-03T10:13:55.867Z,83.50
2023-05-03T10:19:16.173Z,84.40
2023-05-03T10:21:56.187Z,84.40
2023-05-03T10:24:23.087Z,84.70
2023-05-03T10:26:51.547Z,85.70
2023-05-03T10:29:48.669Z,87.60
2023-05-03T10:32:34.721Z,89.50
2023-05-03T10:35:04.189Z,90.20
2023-05-03T10:37:34.601Z,90.10
2023-05-03T10:40:11.822Z,90.40
2023-05-03T10:42:48.028Z,90.60
2023-05-03T10:45:26.041Z,90.40
2023-05-03T10:48:23.190Z,88.80
2023-05-03T10:50:50.525Z,87.10
2023-05-03T10:53:41.386Z,86.30
2023-05-03T10:56:11.617Z,83.00
2023-05-03T10:58:43.623Z,82.10
2023-05-03T11:01:13.247Z,80.70
2023-05-03T11:03:52.253Z,82.00
2023-05-03T11:06:33.393Z,83.30
2023-05-03T11:09:04.204Z,84.00
2023-05-03T11:11:31.550Z,83.50
2023-05-03T11:13:59.887Z,82.00
2023-05-03T11:16:27.478Z,81.70
2023-05-03T11:18:54.850Z,80.40
2023-05-03T11:21:24.080Z,79.40
2023-05-03T11:23:52.238Z,78.30
2023-05-03T11:26:20.948Z,77.80
2023-05-03T11:28:48.945Z,77.50
2023-05-03T11:31:16.339Z,77.80
2023-05-03T11:33:44.631Z,78.60
2023-05-03T11:36:12.968Z,78.90
2023-05-03T11:38:39.990Z,78.30
2023-05-03T11:41:17.009Z,77.70
2023-05-03T11:43:46.236Z,77.20
2023-05-03T11:46:18.485Z,76.10
2023-05-03T11:48:45.626Z,76.20
2023-05-03T11:51:12.378Z,75.20
2023-05-03T11:53:39.780Z,76.70
2023-05-03T11:56:08.101Z,77.90
2023-05-03T11:58:35.428Z,78.60
2023-05-03T12:01:03.746Z,78.90
2023-05-03T12:03:32.240Z,80.60
2023-05-03T12:06:00.484Z,80.10
2023-05-03T12:08:30.794Z,80.00
2023-05-03T12:11:02.610Z,79.10
2023-05-03T12:13:34.089Z,78.20
2023-05-03T12:18:47.301Z,78.90
2023-05-03T12:23:45.936Z,73.40
2023-05-03T12:26:14.444Z,72.90
2023-05-03T12:28:41.780Z,74.00
2023-05-03T12:31:11.580Z,73.50
2023-05-03T12:33:43.321Z,71.20
2023-05-03T12:36:13.341Z,68.50
2023-05-03T12:38:43.697Z,67.70
2023-05-03T12:41:11.154Z,65.60
2023-05-03T12:43:38.150Z,63.10
2023-05-03T12:46:32.431Z,61.00
2023-05-03T12:48:54.395Z,59.90
2023-05-03T12:51:26.009Z,57.80
2023-05-03T12:53:55.113Z,56.40
2023-05-03T12:56:24.723Z,56.00
2023-05-03T12:59:15.062Z,55.00
2023-05-03T13:02:40.955Z,52.70
2023-05-03T13:06:59.353Z,51.20
2023-05-03T13:09:37.684Z,50.20
2023-05-03T13:12:15.354Z,47.80
2023-05-03T13:14:42.285Z,45.00
2023-05-03T13:17:09.116Z,41.50
2023-05-03T13:19:37.200Z,40.00
2023-05-03T13:22:04.186Z,40.20
2023-05-03T13:24:30.938Z,41.10
2023-05-03T13:26:57.748Z,40.40
2023-05-03T13:29:24.570Z,39.10
2023-05-03T13:31:51.345Z,38.10
2023-05-03T13:34:18.159Z,35.90
2023-05-03T13:36:46.301Z,35.60
2023-05-03T13:39:13.068Z,35.80
2023-05-03T13:41:40.316Z,35.00
2023-05-03T13:44:08.368Z,34.50
2023-05-03T13:46:35.875Z,34.40
2023-05-03T13:49:02.878Z,34.60
2023-05-03T13:51:29.723Z,35.80
2023-05-03T13:53:59.504Z,37.20
2023-05-03T13:56:26.471Z,38.70
2023-05-03T13:58:53.552Z,40.20
2023-05-03T14:01:20.316Z,40.80
2023-05-03T14:03:47.319Z,39.30
2023-05-03T14:06:14.369Z,36.80
2023-05-03T14:08:41.229Z,35.10
2023-05-03T14:11:13.741Z,34.10
2023-05-03T14:13:54.726Z,32.40
2023-05-03T14:18:54.467Z,31.60
2023-05-03T14:21:21.341Z,31.60
2023-05-03T14:23:49.080Z,32.00
2023-05-03T14:26:18.151Z,32.30
2023-05-03T14:28:45.004Z,33.10
2023-05-03T14:31:12.134Z,34.50
2023-05-03T14:33:39.359Z,35.40
2023-05-03T14:36:07.126Z,35.10
2023-05-03T14:38:34.013Z,33.80
2023-05-03T14:41:00.880Z,33.20
2023-05-03T14:43:29.047Z,31.90
2023-05-03T14:45:55.806Z,31.40
2023-05-03T14:48:22.582Z,30.80
2023-05-03T14:50:49.912Z,30.40
2023-05-03T14:53:16.951Z,30.00
2023-05-03T14:55:43.908Z,29.60
2023-05-03T14:58:10.793Z,29.70
2023-05-03T15:00:39.164Z,30.10
2023-05-03T15:03:06.120Z,31.40
2023-05-03T15:05:34.151Z,33.20
2023-05-03T15:08:00.915Z,35.10
2023-05-03T15:10:27.837Z,36.90
2023-05-03T15:12:54.604Z,38.50
2023-05-03T15:15:21.413Z,40.00
2023-05-03T15:17:49.544Z,41.20
2023-05-03T15:20:16.594Z,40.40
2023-05-03T15:22:43.409Z,38.30
2023-05-03T15:25:10.407Z,37.50
2023-05-03T15:27:37.186Z,38.10
2023-05-03T15:30:04.826Z,38.30
2023-05-03T15:32:31.831Z,38.70
2023-05-03T15:35:00.301Z,39.20
2023-05-03T15:37:34.126Z,37.70
2023-05-03T15:40:00.978Z,37.10
2023-05-03T15:42:28.051Z,37.40
2023-05-03T15:44:54.871Z,36.40
2023-05-03T15:47:21.687Z,35.40
2023-05-03T15:49:48.501Z,34.10
2023-05-03T15:52:16.640Z,33.10
2023-05-03T15:54:43.391Z,31.90
2023-05-03T15:57:10.303Z,31.40
2023-05-03T15:59:37.141Z,31.00
2023-05-03T16:02:04.025Z,30.40
2023-05-03T16:04:31.005Z,30.00
2023-05-03T16:06:57.782Z,29.90
2023-05-03T16:09:25.919Z,29.70
2023-05-03T16:11:52.630Z,29.60
2023-05-03T16:14:19.437Z,29.10
2023-05-03T16:16:47.096Z,29.40
2023-05-03T16:19:15.216Z,29.10
2023-05-03T16:21:42.114Z,29.10
2023-05-03T16:24:09.511Z,29.10
2023-05-03T16:26:37.688Z,29.20
2023-05-03T16:29:04.609Z,29.10
2023-05-03T16:31:31.939Z,29.20
2023-05-03T16:33:58.732Z,29.20
2023-05-03T16:36:25.610Z,29.30
2023-05-03T16:38:52.333Z,29.80
2023-05-03T16:41:19.065Z,29.50
2023-05-03T16:43:47.215Z,29.50
2023-05-03T16:46:14.004Z,30.00
2023-05-03T16:48:40.948Z,30.30
2023-05-03T16:51:07.687Z,30.20
2023-05-03T16:53:34.503Z,30.00
2023-05-03T16:56:01.584Z,29.60
2023-05-03T16:58:28.368Z,29.50
2023-05-03T17:00:56.600Z,29.70
2023-05-03T17:03:23.459Z,29.80
2023-05-03T17:05:50.400Z,29.70
2023-05-03T17:08:17.260Z,29.70
2023-05-03T17:10:44.018Z,29.80
2023-05-03T17:13:10.794Z,29.90
2023-05-03T17:15:37.574Z,29.90
2023-05-03T17:18:05.796Z,30.00
2023-05-03T17:20:34.051Z,30.20
2023-05-03T17:23:00.765Z,30.60
2023-05-03T17:25:27.626Z,31.00
2023-05-03T17:27:54.392Z,31.90
2023-05-03T17:30:21.647Z,32.50
2023-05-03T17:32:48.865Z,33.80
2023-05-03T17:35:17.258Z,33.70
2023-05-03T17:37:45.152Z,34.20
2023-05-03T17:40:12.527Z,35.40
2023-05-03T17:42:39.286Z,35.30
2023-05-03T17:45:07.308Z,36.10
2023-05-03T17:47:34.031Z,36.70
2023-05-03T17:50:00.789Z,36.80
2023-05-03T17:52:28.943Z,37.00
2023-05-03T17:54:56.677Z,37.20
2023-05-03T17:57:23.464Z,38.10
2023-05-03T17:59:50.239Z,38.60
2023-05-03T18:02:17.040Z,38.90
2023-05-03T18:04:43.890Z,39.50
2023-05-03T18:07:10.676Z,40.40
2023-05-03T18:09:38.770Z,41.40
2023-05-03T18:12:06.323Z,42.90
2023-05-03T18:14:34.932Z,44.10
2023-05-03T18:17:01.725Z,45.30
2023-05-03T18:19:28.487Z,46.40
2023-05-03T18:21:55.232Z,47.40
2023-05-03T18:24:22.396Z,49.10
2023-05-03T18:26:50.547Z,50.40
2023-05-03T18:29:17.346Z,51.60
2023-05-03T18:31:44.169Z,53.80
2023-05-03T18:34:11.129Z,54.10
2023-05-03T18:36:39.132Z,54.80
2023-05-03T18:39:05.891Z,56.00
2023-05-03T18:41:32.700Z,56.90
2023-05-03T18:44:00.837Z,58.10
2023-05-03T18:46:27.605Z,58.90
2023-05-03T18:48:54.394Z,60.00
2023-05-03T18:51:21.131Z,60.80
2023-05-03T18:53:47.892Z,61.80
2023-05-03T18:56:14.628Z,63.40
2023-05-03T18:58:41.400Z,64.10
2023-05-03T19:01:09.600Z,65.50
2023-05-03T19:03:36.475Z,65.20
2023-05-03T19:06:04.562Z,65.90
2023-05-03T19:08:31.453Z,67.40
2023-05-03T19:11:05.996Z,67.50
2023-05-03T19:13:32.766Z,68.70
2023-05-03T19:15:59.474Z,69.90
2023-05-03T19:18:27.764Z,69.80
2023-05-03T19:20:54.542Z,71.10
2023-05-03T19:23:21.312Z,71.70
2023-05-03T19:25:48.063Z,72.80
2023-05-03T19:28:14.910Z,72.90
2023-05-03T19:30:41.785Z,73.40
2023-05-03T19:33:08.603Z,73.80
2023-05-03T19:35:39.453Z,75.50
2023-05-03T19:38:06.330Z,76.00
2023-05-03T19:40:33.224Z,76.60
2023-05-03T19:43:00.490Z,76.90
2023-05-03T19:45:27.268Z,77.20
2023-05-03T19:47:54.087Z,77.90
2023-05-03T19:50:20.846Z,79.20
2023-05-03T19:52:51.545Z,79.40
2023-05-03T19:55:18.518Z,80.00
2023-05-03T19:57:45.318Z,80.20
2023-05-03T20:00:12.961Z,81.10
2023-05-03T20:02:39.796Z,81.40
2023-05-03T20:05:07.227Z,82.20
2023-05-03T20:07:34.393Z,82.70
2023-05-03T20:10:02.910Z,83.60
2023-05-03T20:12:29.877Z,84.50
2023-05-03T20:14:56.767Z,85.10
2023-05-03T20:17:23.601Z,85.70
2023-05-03T20:19:50.373Z,85.90
2023-05-03T20:22:17.264Z,86.60
2023-05-03T20:24:44.277Z,88.00
2023-05-03T20:27:12.413Z,88.20
2023-05-03T20:29:39.198Z,88.70
2023-05-03T20:32:06.139Z,89.40
2023-05-03T20:34:32.916Z,90.30
2023-05-03T20:36:59.644Z,90.20
2023-05-03T20:39:26.393Z,90.70
2023-05-03T20:41:53.125Z,91.00
2023-05-03T20:44:21.220Z,91.30
2023-05-03T20:46:47.994Z,91.50
2023-05-03T20:49:14.752Z,92.40
2023-05-03T20:51:41.440Z,92.50
2023-05-03T20:54:08.203Z,92.90
2023-05-03T20:56:35.029Z,93.50
2023-05-03T20:59:01.817Z,93.60
2023-05-03T21:01:30.070Z,93.90
2023-05-03T21:03:56.998Z,94.40
2023-05-03T21:06:23.819Z,94.40
2023-05-03T21:08:50.580Z,94.60
2023-05-03T21:11:17.383Z,94.90
2023-05-03T21:13:44.139Z,95.70
2023-05-03T21:16:10.880Z,95.60
2023-05-03T21:18:39.030Z,95.90
2023-05-03T21:21:05.913Z,96.20
2023-05-03T21:23:32.694Z,96.20
2023-05-03T21:25:59.517Z,96.20
2023-05-03T21:28:26.278Z,96.40
2023-05-03T21:30:54.348Z,96.80
2023-05-03T21:33:21.096Z,96.80
2023-05-03T21:35:49.234Z,97.10
2023-05-03T21:38:16.026Z,97.10
2023-05-03T21:40:42.788Z,97.40
2023-05-03T21:43:09.602Z,97.60
2023-05-03T21:45:36.781Z,98.00
2023-05-03T21:48:04.021Z,98.20
2023-05-03T21:50:30.830Z,98.50
2023-05-03T21:52:58.966Z,98.90
2023-05-03T21:55:25.907Z,99.00
2023-05-03T21:57:52.621Z,99.20
2023-05-03T22:00:19.652Z,99.30
2023-05-03T22:02:46.582Z,99.60
2023-05-03T22:05:13.427Z,99.90
2023-05-03T22:07:40.299Z,99.90
2023-05-03T22:10:09.415Z,99.90
2023-05-03T22:12:36.269Z,99.90
2023-05-03T22:15:03.405Z,99.90
2023-05-03T22:17:31.003Z,99.90
2023-05-03T22:19:58.147Z,99.90
2023-05-03T22:22:25.060Z,99.90
2023-05-03T22:24:51.827Z,99.90
2023-05-03T22:27:19.929Z,99.90
2023-05-03T22:29:46.721Z,99.90
2023-05-03T22:32:13.661Z,99.90
2023-05-03T22:34:40.362Z,99.90
2023-05-03T22:37:07.211Z,99.90
2023-05-03T22:39:33.952Z,99.90
2023-05-03T22:42:00.792Z,99.90
2023-05-03T22:44:28.920Z,99.90
2023-05-03T22:46:55.690Z,99.90
2023-05-03T22:49:22.475Z,99.90
2023-05-03T22:51:49.285Z,99.90
2023-05-03T22:54:16.198Z,99.90
2023-05-03T22:56:42.934Z,99.90
2023-05-03T22:59:09.706Z,99.90
2023-05-03T23:01:37.819Z,99.90
2023-05-03T23:04:04.953Z,99.90
2023-05-03T23:06:31.762Z,99.90
2023-05-03T23:08:58.560Z,99.90
2023-05-03T23:11:25.408Z,99.90
2023-05-03T23:13:52.162Z,99.90
2023-05-03T23:16:18.916Z,99.90
2023-05-03T23:18:47.052Z,99.90
2023-05-03T23:21:13.786Z,99.90
2023-05-03T23:23:40.523Z,99.90
2023-05-03T23:26:07.395Z,99.90
2023-05-03T23:28:34.685Z,99.90
2023-05-03T23:31:01.731Z,99.90
2023-05-03T23:33:29.065Z,99.90
2023-05-03T23:35:57.210Z,99.90
2023-05-03T23:38:23.967Z,99.90
2023-05-03T23:40:50.735Z,99.90
2023-05-03T23:43:17.528Z,99.90
2023-05-03T23:45:44.294Z,99.90
2023-05-03T23:48:11.130Z,99.90
2023-05-03T23:50:37.983Z,99.90
2023-05-03T23:53:06.049Z,99.90
2023-05-03T23:55:32.860Z,99.90
2023-05-03T23:57:59.569Z,99.90
